sensor_id;sensor_type;location;lat;lon;timestamp;temperature;humidity
20740;DHT22;10530;49.968;19.844;2023-04-01T00:02:47;10.50;99.90
20740;DHT22;10530;49.968;19.844;2023-04-01T00:07:50;10.40;99.90
20740;DHT22;10530;49.968;19.844;2023-04-01T00:12:53;10.40;99.90
20740;DHT22;10530;49.968;19.844;2023-04-01T00:17:56;10.40;99.90
20740;DHT22;10530;49.968;19.844;2023-04-01T00:22:59;10.40;99.90
20740;DHT22;10530;49.968;19.844;2023-04-01T00:28:01;10.30;99.90
20740;DHT22;10530;49.968;19.844;2023-04-01T00:33:04;10.30;99.90
20740;DHT22;10530;49.968;19.844;2023-04-01T00:38:07;10.30;99.90
20740;DHT22;10530;49.968;19.844;2023-04-01T00:43:19;10.30;99.90
20740;DHT22;10530;49.968;19.844;2023-04-01T00:48:24;10.30;99.90
20740;DHT22;10530;49.968;19.844;2023-04-01T00:53:30;10.20;99.90
20740;DHT22;10530;49.968;19.844;2023-04-01T00:58:38;10.10;99.90
20740;DHT22;10530;49.968;19.844;2023-04-01T01:03:42;10.10;99.90
20740;DHT22;10530;49.968;19.844;2023-04-01T01:14:29;10.00;99.90
20740;DHT22;10530;49.968;19.844;2023-04-01T01:31:12;10.00;99.90
20740;DHT22;10530;49.968;19.844;2023-04-01T01:36:19;10.00;99.90
20740;DHT22;10530;49.968;19.844;2023-04-01T01:41:25;10.10;99.90
20740;DHT22;10530;49.968;19.844;2023-04-01T01:46:30;10.00;99.90
20740;DHT22;10530;49.968;19.844;2023-04-01T01:51:34;10.00;99.90
20740;DHT22;10530;49.968;19.844;2023-04-01T01:56:39;10.00;99.90
20740;DHT22;10530;49.968;19.844;2023-04-01T02:01:46;10.00;99.90
20740;DHT22;10530;49.968;19.844;2023-04-01T02:06:58;10.10;99.90
20740;DHT22;10530;49.968;19.844;2023-04-01T02:12:05;10.00;99.90
20740;DHT22;10530;49.968;19.844;2023-04-01T02:17:19;10.00;99.90
20740;DHT22;10530;49.968;19.844;2023-04-01T02:22:31;10.00;99.90
20740;DHT22;10530;49.968;19.844;2023-04-01T02:27:36;10.00;99.90
20740;DHT22;10530;49.968;19.844;2023-04-01T02:32:39;10.00;99.90
20740;DHT22;10530;49.968;19.844;2023-04-01T02:37:43;9.90;99.90
20740;DHT22;10530;49.968;19.844;2023-04-01T02:42:48;9.90;99.90
20740;DHT22;10530;49.968;19.844;2023-04-01T02:47:50;9.80;99.90
20740;DHT22;10530;49.968;19.844;2023-04-01T02:52:53;9.80;99.90
20740;DHT22;10530;49.968;19.844;2023-04-01T02:57:56;9.80;99.90
20740;DHT22;10530;49.968;19.844;2023-04-01T03:02:58;9.80;99.90
20740;DHT22;10530;49.968;19.844;2023-04-01T03:08:02;9.80;99.90
20740;DHT22;10530;49.968;19.844;2023-04-01T03:13:05;9.90;99.90
20740;DHT22;10530;49.968;19.844;2023-04-01T03:18:09;9.90;99.90
20740;DHT22;10530;49.968;19.844;2023-04-01T03:23:11;9.90;99.90
20740;DHT22;10530;49.968;19.844;2023-04-01T03:28:14;9.90;99.90
20740;DHT22;10530;49.968;19.844;2023-04-01T03:33:17;9.90;99.90
20740;DHT22;10530;49.968;19.844;2023-04-01T03:38:20;9.90;99.90
20740;DHT22;10530;49.968;19.844;2023-04-01T03:43:23;9.90;99.90
20740;DHT22;10530;49.968;19.844;2023-04-01T03:48:25;9.90;99.90
20740;DHT22;10530;49.968;19.844;2023-04-01T03:53:28;9.90;99.90
20740;DHT22;10530;49.968;19.844;2023-04-01T03:58:35;9.90;99.90
20740;DHT22;10530;49.968;19.844;2023-04-01T04:03:39;9.90;99.90
20740;DHT22;10530;49.968;19.844;2023-04-01T04:08:42;9.90;99.90
20740;DHT22;10530;49.968;19.844;2023-04-01T04:13:45;9.90;99.90
20740;DHT22;10530;49.968;19.844;2023-04-01T04:18:50;9.90;99.90
20740;DHT22;10530;49.968;19.844;2023-04-01T04:23:53;9.90;99.90
20740;DHT22;10530;49.968;19.844;2023-04-01T04:28:56;9.90;99.90
20740;DHT22;10530;49.968;19.844;2023-04-01T04:34:00;9.90;99.90
20740;DHT22;10530;49.968;19.844;2023-04-01T04:39:09;9.90;99.90
20740;DHT22;10530;49.968;19.844;2023-04-01T04:44:13;9.90;99.90
20740;DHT22;10530;49.968;19.844;2023-04-01T04:49:17;9.90;99.90
20740;DHT22;10530;49.968;19.844;2023-04-01T04:54:20;9.80;99.90
20740;DHT22;10530;49.968;19.844;2023-04-01T04:59:27;9.90;99.90
20740;DHT22;10530;49.968;19.844;2023-04-01T05:04:38;9.90;99.90
20740;DHT22;10530;49.968;19.844;2023-04-01T05:09:44;9.90;99.90
20740;DHT22;10530;49.968;19.844;2023-04-01T05:14:49;9.90;99.90
20740;DHT22;10530;49.968;19.844;2023-04-01T05:19:52;9.90;99.90
20740;DHT22;10530;49.968;19.844;2023-04-01T05:24:55;9.90;99.90
20740;DHT22;10530;49.968;19.844;2023-04-01T05:29:58;9.90;99.90
20740;DHT22;10530;49.968;19.844;2023-04-01T05:35:28;9.90;99.90
20740;DHT22;10530;49.968;19.844;2023-04-01T05:40:32;10.00;99.90
20740;DHT22;10530;49.968;19.844;2023-04-01T05:45:35;10.20;99.90
20740;DHT22;10530;49.968;19.844;2023-04-01T05:50:48;10.30;99.90
20740;DHT22;10530;49.968;19.844;2023-04-01T05:55:51;10.50;99.90
20740;DHT22;10530;49.968;19.844;2023-04-01T06:01:00;10.60;99.90
20740;DHT22;10530;49.968;19.844;2023-04-01T06:06:26;10.60;99.90
20740;DHT22;10530;49.968;19.844;2023-04-01T06:12:00;10.60;99.90
20740;DHT22;10530;49.968;19.844;2023-04-01T06:33:30;11.10;99.90
20740;DHT22;10530;49.968;19.844;2023-04-01T06:44:21;11.40;99.90
20740;DHT22;10530;49.968;19.844;2023-04-01T06:55:57;12.10;99.90
20740;DHT22;10530;49.968;19.844;2023-04-01T07:01:28;12.00;99.90
20740;DHT22;10530;49.968;19.844;2023-04-01T07:06:53;11.90;99.90
20740;DHT22;10530;49.968;19.844;2023-04-01T07:12:01;11.90;99.90
20740;DHT22;10530;49.968;19.844;2023-04-01T07:17:27;12.00;99.90
20740;DHT22;10530;49.968;19.844;2023-04-01T07:22:46;11.70;99.90
20740;DHT22;10530;49.968;19.844;2023-04-01T07:28:16;12.50;99.90
20740;DHT22;10530;49.968;19.844;2023-04-01T07:50:26;12.40;99.90
20740;DHT22;10530;49.968;19.844;2023-04-01T07:55:39;12.40;99.90
20740;DHT22;10530;49.968;19.844;2023-04-01T08:00:56;12.40;99.90
20740;DHT22;10530;49.968;19.844;2023-04-01T08:22:33;12.90;99.90
20740;DHT22;10530;49.968;19.844;2023-04-01T08:27:46;12.60;99.90
20740;DHT22;10530;49.968;19.844;2023-04-01T08:33:08;12.90;99.90
20740;DHT22;10530;49.968;19.844;2023-04-01T08:38:29;13.50;99.90
20740;DHT22;10530;49.968;19.844;2023-04-01T08:43:46;14.80;99.90
20740;DHT22;10530;49.968;19.844;2023-04-01T09:06:42;14.40;98.50
20740;DHT22;10530;49.968;19.844;2023-04-01T09:28:15;13.80;99.90
20740;DHT22;10530;49.968;19.844;2023-04-01T09:39:20;13.80;99.90
20740;DHT22;10530;49.968;19.844;2023-04-01T09:44:53;13.20;99.90
20740;DHT22;10530;49.968;19.844;2023-04-01T09:50:26;13.10;99.90
20740;DHT22;10530;49.968;19.844;2023-04-01T10:18:40;12.20;99.90
20740;DHT22;10530;49.968;19.844;2023-04-01T11:03:19;16.20;93.90
20740;DHT22;10530;49.968;19.844;2023-04-01T11:41:45;15.80;84.80
20740;DHT22;10530;49.968;19.844;2023-04-01T11:47:22;15.00;87.40
20740;DHT22;10530;49.968;19.844;2023-04-01T11:53:02;13.60;99.90
20740;DHT22;10530;49.968;19.844;2023-04-01T12:09:25;14.70;99.90
20740;DHT22;10530;49.968;19.844;2023-04-01T12:20:33;14.00;99.90
20740;DHT22;10530;49.968;19.844;2023-04-01T12:37:03;13.90;99.90
20740;DHT22;10530;49.968;19.844;2023-04-01T12:52:59;12.60;99.90
20740;DHT22;10530;49.968;19.844;2023-04-01T13:09:29;12.20;99.90
20740;DHT22;10530;49.968;19.844;2023-04-01T13:15:13;12.20;99.90
20740;DHT22;10530;49.968;19.844;2023-04-01T13:41:00;12.80;99.90
20740;DHT22;10530;49.968;19.844;2023-04-01T13:51:56;11.90;99.90
20740;DHT22;10530;49.968;19.844;2023-04-01T14:08:06;11.80;99.90
20740;DHT22;10530;49.968;19.844;2023-04-01T14:13:37;11.70;99.90
20740;DHT22;10530;49.968;19.844;2023-04-01T14:18:56;11.50;99.90
20740;DHT22;10530;49.968;19.844;2023-04-01T14:51:35;12.00;99.90
20740;DHT22;10530;49.968;19.844;2023-04-01T14:56:47;12.20;99.90
20740;DHT22;10530;49.968;19.844;2023-04-01T15:18:09;12.30;99.90
20740;DHT22;10530;49.968;19.844;2023-04-01T15:35:37;12.00;99.90
20740;DHT22;10530;49.968;19.844;2023-04-01T15:46:22;11.80;99.90
20740;DHT22;10530;49.968;19.844;2023-04-01T15:57:04;11.70;99.90
20740;DHT22;10530;49.968;19.844;2023-04-01T16:23:49;10.90;99.90
20740;DHT22;10530;49.968;19.844;2023-04-01T16:56:25;9.60;99.90
20740;DHT22;10530;49.968;19.844;2023-04-01T17:23:45;9.40;99.90
20740;DHT22;10530;49.968;19.844;2023-04-01T17:34:19;9.40;99.90
20740;DHT22;10530;49.968;19.844;2023-04-01T17:51:10;9.40;99.90
20740;DHT22;10530;49.968;19.844;2023-04-01T18:01:42;9.40;99.90
20740;DHT22;10530;49.968;19.844;2023-04-01T18:07:20;9.40;99.90
20740;DHT22;10530;49.968;19.844;2023-04-01T18:23:51;9.10;99.90
20740;DHT22;10530;49.968;19.844;2023-04-01T18:40:25;9.00;99.90
20740;DHT22;10530;49.968;19.844;2023-04-01T18:45:57;9.00;99.90
20740;DHT22;10530;49.968;19.844;2023-04-01T18:51:13;9.00;99.90
20740;DHT22;10530;49.968;19.844;2023-04-01T19:12:55;9.00;99.90
20740;DHT22;10530;49.968;19.844;2023-04-01T19:18:21;9.00;99.90
20740;DHT22;10530;49.968;19.844;2023-04-01T19:34:25;9.00;99.90
20740;DHT22;10530;49.968;19.844;2023-04-01T19:39:46;9.00;99.90
20740;DHT22;10530;49.968;19.844;2023-04-01T19:50:49;9.10;99.90
20740;DHT22;10530;49.968;19.844;2023-04-01T20:01:35;9.10;99.90
20740;DHT22;10530;49.968;19.844;2023-04-01T20:12:42;9.20;99.90
20740;DHT22;10530;49.968;19.844;2023-04-01T20:17:48;9.20;99.90
20740;DHT22;10530;49.968;19.844;2023-04-01T20:44:39;9.20;99.90
20740;DHT22;10530;49.968;19.844;2023-04-01T20:55:15;9.10;99.90
20740;DHT22;10530;49.968;19.844;2023-04-01T21:00:56;9.10;99.90
20740;DHT22;10530;49.968;19.844;2023-04-01T21:17:04;9.00;99.90
20740;DHT22;10530;49.968;19.844;2023-04-01T21:50:01;9.00;99.90
20740;DHT22;10530;49.968;19.844;2023-04-01T21:55:39;9.00;99.90
20740;DHT22;10530;49.968;19.844;2023-04-01T22:01:01;9.00;99.90
20740;DHT22;10530;49.968;19.844;2023-04-01T22:06:30;9.00;99.90
20740;DHT22;10530;49.968;19.844;2023-04-01T22:11:57;8.90;99.90
20740;DHT22;10530;49.968;19.844;2023-04-01T22:22:34;8.90;99.90
20740;DHT22;10530;49.968;19.844;2023-04-01T22:33:18;8.90;99.90
20740;DHT22;10530;49.968;19.844;2023-04-01T22:43:40;8.90;99.90
20740;DHT22;10530;49.968;19.844;2023-04-01T22:48:54;8.90;99.90
20740;DHT22;10530;49.968;19.844;2023-04-01T22:54:30;8.90;99.90
20740;DHT22;10530;49.968;19.844;2023-04-01T22:59:54;8.90;99.90
20740;DHT22;10530;49.968;19.844;2023-04-01T23:05:02;8.90;99.90
20740;DHT22;10530;49.968;19.844;2023-04-01T23:10:15;8.90;99.90
20740;DHT22;10530;49.968;19.844;2023-04-01T23:15:19;8.90;99.90
20740;DHT22;10530;49.968;19.844;2023-04-01T23:20:44;8.90;99.90
20740;DHT22;10530;49.968;19.844;2023-04-01T23:25:56;8.90;99.90
20740;DHT22;10530;49.968;19.844;2023-04-01T23:31:02;8.90;99.90
20740;DHT22;10530;49.968;19.844;2023-04-01T23:36:14;8.90;99.90
20740;DHT22;10530;49.968;19.844;2023-04-01T23:41:22;8.90;99.90
20740;DHT22;10530;49.968;19.844;2023-04-01T23:46:26;8.90;99.90
20740;DHT22;10530;49.968;19.844;2023-04-01T23:51:38;8.90;99.90
20740;DHT22;10530;49.968;19.844;2023-04-01T23:56:45;8.80;99.90
